Aérodrome :
LOGIN :

S'inscrire | Disclaimer

   EN    FR    IT 

 










Légende :    VFR   VFR Marginal   IFR   IFR Intensif   IFR Très Intensif
Visi : 
Plafond : 
>= 8 km
>= 3000ft
5 à 8 km
1000 à 3000 ft
1500m à 5 km
500 à 1000 ft
800 à 1500m
200 à 500 ft
< 800m
< 200 ft
Symboles :   Orages  Brouillard  Fortes neiges  Fortes précipitations  Vent > 20 kt
SIGMETs :   Divers  Orages  Givrage  Turbulence  Onde Orograph.  Cendres Volcan.






- Altitude de l'aérodrome : 106 ft
- Code IATA : NRN


EDLV - Weeze

DERNIER METAR :
  • 091120Z 25010KT 230V290 9999 BKN023 19/16 Q1013

METARs EXPIRÉS :
  • 091050Z 25011KT 9999 VCSH BKN016 19/16 Q1013
  • 091020Z 25012KT 9999 BKN019 18/16 Q1013
  • 090950Z 24011KT 9999 BKN010 18/16 Q1013
  • 090920Z 24014KT 9999 -RA BKN010 17/16 Q1013
  • 090850Z 22008KT 9999 -RA BKN007 18/16 Q1013

TAF TAF EDLV
Valide du 09 à 12h jusqu'au 10 à 12h UTC


091100Z 0912/1012 24012KT 9999 BKN025
BECMG 0916/0919 VRB03KT
BECMG 1001/1003 BKN010
TEMPO 1001/1010 3000 RA BKN007
BECMG 1004/1006 25010KT



MET'MAP, la Météo Aéronautique d'un coup d'oeil ! - Copyright ORBIFLY Décembre 2007 - Disclaimer

ORBIFLY MET'MAP TEAM :

Programmation & Développement : Alexandra Zaïnal
Sur une idée originale de : Baudouin d'Aumeries
Assistance à la programmation : Marc-Olivier Méhu
Soutien technique & logistique : Manuel Goepfert

Contact : metmap@orbifly.com




SOURCES & CREDITS :

   NOAA